Time;durP1;ratioP1;P1;durP2;ratioP2;P2;SDS_P1;SDS_P2;PMS_P1;PMS_P2;Temp;Humidity;BMP_temperature;BMP_pressure;BME280_temperature;BME280_humidity;BME280_pressure;Samples;Min_cycle;Max_cycle;Signal;HPM_P1;HPM_P2
2021/03/19 00:00:16;;;;;;;4.12;3.20;;;;;;;2.34;78.98;96567.89;1700748;83;21273;-79
2021/03/19 00:02:46;;;;;;;6.53;3.58;;;;;;;2.43;79.08;96567.38;1692383;85;21625;-83
2021/03/19 00:05:24;;;;;;;3.98;3.22;;;;;;;2.49;78.91;96565.72;1658437;86;21212;-78
2021/03/19 00:07:55;;;;;;;3.45;3.10;;;;;;;2.50;78.79;96568.70;1725333;83;21152;-77
2021/03/19 00:10:27;;;;;;;5.47;3.50;;;;;;;2.52;78.75;96566.00;1706021;83;21776;-79
2021/03/19 00:12:57;;;;;;;4.72;3.60;;;;;;;2.57;78.80;96569.64;1700055;83;21228;-77
2021/03/19 00:15:27;;;;;;;4.05;3.10;;;;;;;2.55;78.44;96564.53;1723444;83;21124;-78
2021/03/19 00:18:00;;;;;;;3.65;3.05;;;;;;;2.61;78.41;96560.75;1721175;83;21160;-77
2021/03/19 00:20:34;;;;;;;4.40;3.62;;;;;;;2.59;78.17;96558.70;1715998;83;21120;-79
2021/03/19 00:23:02;;;;;;;3.92;2.85;;;;;;;2.63;78.39;96554.53;1697460;83;21143;-79
2021/03/19 00:25:30;;;;;;;4.12;3.00;;;;;;;2.67;78.41;96553.89;1659262;86;21192;-79
2021/03/19 00:27:58;;;;;;;4.25;3.22;;;;;;;2.65;78.18;96550.08;1715920;83;21318;-77
2021/03/19 00:30:27;;;;;;;3.42;3.02;;;;;;;2.64;78.00;96548.87;1696758;83;21297;-78
2021/03/19 00:32:56;;;;;;;4.83;3.30;;;;;;;2.54;77.60;96547.72;1704535;83;21138;-77
2021/03/19 00:35:25;;;;;;;4.15;2.85;;;;;;;2.48;77.73;96545.00;1725300;83;21589;-78
2021/03/19 00:37:52;;;;;;;3.92;2.80;;;;;;;2.41;77.78;96548.88;1723858;83;21134;-77
2021/03/19 00:40:22;;;;;;;3.58;2.60;;;;;;;2.33;77.72;96549.30;1695164;85;21125;-76
2021/03/19 00:42:50;;;;;;;3.20;2.45;;;;;;;2.27;77.95;96542.67;1656308;86;21172;-79
2021/03/19 00:45:18;;;;;;;2.95;2.30;;;;;;;2.26;78.00;96540.17;1724239;83;21172;-76
2021/03/19 00:47:51;;;;;;;3.50;2.50;;;;;;;2.02;77.49;96515.89;1714257;83;21197;-78
2021/03/19 00:50:37;;;;;;;3.55;2.58;;;;;;;1.98;77.69;96533.42;1712277;83;21588;-77
2021/03/19 00:53:06;;;;;;;3.52;2.80;;;;;;;1.86;79.32;96541.43;1721152;83;21131;-81
2021/03/19 00:55:39;;;;;;;3.27;2.58;;;;;;;1.53;79.01;96538.40;1724553;83;21593;-78
2021/03/19 00:58:07;;;;;;;3.58;2.22;;;;;;;1.27;79.49;96531.14;1703086;83;21345;-79
2021/03/19 01:00:37;;;;;;;3.85;2.45;;;;;;;1.16;80.37;96536.89;1651065;86;21669;-80
2021/03/19 01:03:07;;;;;;;4.10;2.67;;;;;;;0.96;80.72;96532.73;1706394;83;21093;-77
2021/03/19 01:05:44;;;;;;;5.00;3.40;;;;;;;0.81;81.25;96532.58;1696476;83;21156;-79
2021/03/19 01:08:16;;;;;;;3.85;3.25;;;;;;;0.64;81.62;96529.55;1695529;84;21156;-83
2021/03/19 01:10:52;;;;;;;2.93;2.13;;;;;;;0.54;81.53;96530.91;1695980;83;21139;-82
2021/03/19 01:13:21;;;;;;;3.65;2.77;;;;;;;0.51;82.31;96533.17;1721871;83;21197;-83
2021/03/19 01:15:51;;;;;;;3.52;2.33;;;;;;;0.40;82.27;96522.03;1723871;83;21177;-82
2021/03/19 01:18:25;;;;;;;4.97;3.40;;;;;;;0.36;82.63;96527.44;1720188;83;21132;-77
2021/03/19 01:20:55;;;;;;;2.87;2.02;;;;;;;0.28;82.74;96529.95;1714587;83;21156;-83
2021/03/19 01:23:23;;;;;;;3.43;2.90;;;;;;;0.29;82.75;96532.08;1716412;83;21274;-85
2021/03/19 01:25:51;;;;;;;4.37;2.80;;;;;;;0.24;82.99;96529.70;1653880;86;21164;-81
2021/03/19 01:28:19;;;;;;;3.87;2.87;;;;;;;0.19;83.21;96533.43;1683042;84;21156;-88
2021/03/19 01:30:48;;;;;;;4.50;3.23;;;;;;;0.13;83.57;96521.62;1685931;84;21200;-77
2021/03/19 01:33:17;;;;;;;3.00;2.40;;;;;;;0.12;84.13;96523.83;1704714;84;21587;-83
2021/03/19 01:35:45;;;;;;;3.80;2.90;;;;;;;0.17;83.55;96530.92;1712230;84;21153;-78
2021/03/19 01:38:13;;;;;;;4.10;3.25;;;;;;;0.17;83.65;96523.61;1667288;85;21121;-79
2021/03/19 01:40:45;;;;;;;4.33;3.93;;;;;;;0.09;83.19;96522.20;1711554;83;21177;-81
2021/03/19 01:43:23;;;;;;;3.47;2.60;;;;;;;0.08;83.35;96519.25;1711325;84;21165;-79
2021/03/19 01:46:48;;;;;;;4.87;2.80;;;;;;;0.06;84.40;96520.22;1708977;83;21164;-82
2021/03/19 01:50:11;;;;;;;3.57;2.50;;;;;;;0.02;83.93;96520.81;1686248;84;21149;-81
2021/03/19 01:53:35;;;;;;;5.00;3.70;;;;;;;-0.05;84.14;96515.55;1613279;87;21294;-80
2021/03/19 01:57:00;;;;;;;5.37;4.00;;;;;;;-0.10;83.89;96522.24;1706116;84;21133;-82
2021/03/19 02:00:26;;;;;;;4.45;3.60;;;;;;;-0.08;84.27;96522.16;1706849;84;21140;-83
2021/03/19 02:03:50;;;;;;;5.33;3.57;;;;;;;-0.07;84.25;96518.22;1688666;84;21148;-76
2021/03/19 02:07:14;;;;;;;5.50;3.80;;;;;;;-0.08;84.03;96520.42;1706415;84;21139;-80
2021/03/19 02:10:37;;;;;;;4.60;3.70;;;;;;;-0.12;84.23;96531.83;1685021;84;21566;-84
2021/03/19 02:14:01;;;;;;;4.40;3.33;;;;;;;-0.06;84.00;96520.34;1706066;84;21116;-84
2021/03/19 02:17:24;;;;;;;4.77;3.10;;;;;;;-0.03;83.70;96525.39;1705466;84;21152;-83
2021/03/19 02:20:49;;;;;;;4.33;3.33;;;;;;;-0.02;83.54;96525.31;1713211;83;21262;-80
2021/03/19 02:24:13;;;;;;;3.40;2.40;;;;;;;-0.06;84.23;96524.23;1699026;83;21530;-82
2021/03/19 02:27:36;;;;;;;5.23;4.07;;;;;;;0.02;83.57;96526.47;1712407;83;21539;-82
2021/03/19 02:31:00;;;;;;;5.00;3.73;;;;;;;-0.01;83.95;96527.00;1705243;83;21669;-86
2021/03/19 02:33:34;;;;;;;5.50;3.83;;;;;;;-0.01;83.87;96523.11;1698138;83;21295;-78
2021/03/19 02:36:05;;;;;;;4.30;3.60;;;;;;;0.08;83.36;96524.44;1714119;83;21159;-85
2021/03/19 02:38:33;;;;;;;5.30;3.65;;;;;;;0.07;83.29;96526.64;1697679;83;21215;-81
2021/03/19 02:41:01;;;;;;;4.67;3.70;;;;;;;0.07;82.93;96522.75;1698253;83;21602;-82
2021/03/19 02:43:29;;;;;;;4.37;2.87;;;;;;;0.10;83.16;96526.48;1696450;85;21172;-84
2021/03/19 02:45:57;;;;;;;4.13;3.47;;;;;;;0.12;83.11;96523.83;1660520;86;21330;-85
2021/03/19 02:48:25;;;;;;;4.97;4.20;;;;;;;0.10;83.15;96523.89;1703063;83;21144;-82
2021/03/19 02:50:53;;;;;;;6.50;3.42;;;;;;;0.03;82.93;96520.38;1699090;83;21200;-81
2021/03/19 02:53:27;;;;;;;5.13;3.33;;;;;;;0.02;83.29;96523.88;1698914;80;21109;-81
2021/03/19 02:56:01;;;;;;;4.70;3.70;;;;;;;-0.02;83.44;96525.31;1700237;83;21148;-81
2021/03/19 02:58:29;;;;;;;4.57;3.37;;;;;;;-0.04;83.14;96531.48;1704634;83;21176;-85
2021/03/19 03:00:57;;;;;;;2.63;2.10;;;;;;;-0.06;83.27;96528.97;1707569;83;21172;-86
2021/03/19 03:03:28;;;;;;;3.33;2.83;;;;;;;-0.01;83.23;96530.88;1725740;79;21175;-80
2021/03/19 03:05:58;;;;;;;5.53;3.60;;;;;;;-0.06;83.03;96535.89;1678660;83;21180;-80
2021/03/19 03:08:30;;;;;;;4.03;2.80;;;;;;;-0.10;83.01;96530.02;1701318;83;21649;-86
2021/03/19 03:11:00;;;;;;;7.07;4.07;;;;;;;-0.10;83.18;96530.48;1634113;86;21176;-83
2021/03/19 03:13:28;;;;;;;5.03;2.67;;;;;;;-0.14;83.18;96528.49;1722280;83;21558;-83
2021/03/19 03:15:56;;;;;;;4.03;2.73;;;;;;;-0.11;83.07;96530.09;1720124;83;21143;-81
2021/03/19 03:18:25;;;;;;;5.60;3.07;;;;;;;-0.16;83.30;96536.78;1705380;83;21251;-80
2021/03/19 03:20:56;;;;;;;3.60;2.33;;;;;;;-0.24;83.07;96533.24;1722952;83;21136;-81
2021/03/19 03:23:27;;;;;;;4.23;3.10;;;;;;;-0.28;83.43;96537.34;1702301;83;21682;-84
2021/03/19 03:25:56;;;;;;;3.55;2.65;;;;;;;-0.36;83.69;96537.68;1724944;83;21160;-80
2021/03/19 03:28:25;;;;;;;3.37;2.30;;;;;;;-0.33;83.50;96534.96;1714324;83;21180;-81
2021/03/19 03:30:58;;;;;;;4.70;3.83;;;;;;;-0.27;83.72;96539.85;1705689;84;21176;-78
2021/03/19 03:33:26;;;;;;;5.67;4.20;;;;;;;-0.27;83.73;96532.08;1692288;83;21149;-81
2021/03/19 03:35:55;;;;;;;4.40;3.10;;;;;;;-0.22;83.62;96531.43;1683832;84;21199;-84
2021/03/19 03:38:26;;;;;;;5.40;3.97;;;;;;;-0.21;83.25;96529.23;1683076;85;21157;-86
2021/03/19 03:41:03;;;;;;;4.80;3.90;;;;;;;-0.19;83.34;96533.03;1703840;84;21160;-81
2021/03/19 03:43:55;;;;;;;4.47;3.45;;;;;;;-0.03;83.55;96532.70;1800210;79;24926;-84
2021/03/19 03:46:26;;;;;;;4.47;3.10;;;;;;;-0.01;83.15;96539.13;1763647;80;21277;-81
2021/03/19 03:48:58;;;;;;;4.07;3.67;;;;;;;-0.12;83.26;96531.83;1763727;80;21155;-83
2021/03/19 03:51:28;;;;;;;4.57;3.83;;;;;;;-0.18;83.27;96536.02;1763198;81;21148;-81
2021/03/19 03:53:57;;;;;;;5.93;3.77;;;;;;;-0.17;83.87;96530.75;1767675;80;21536;-80
2021/03/19 03:56:27;;;;;;;5.37;3.67;;;;;;;-0.16;83.34;96535.02;1763173;81;21127;-81
2021/03/19 03:58:56;;;;;;;4.73;3.30;;;;;;;-0.11;83.32;96537.40;1766771;80;21115;-82
2021/03/19 04:01:25;;;;;;;5.50;3.80;;;;;;;-0.10;83.19;96533.91;1787335;80;21712;-81
2021/03/19 04:03:55;;;;;;;7.80;4.07;;;;;;;-0.15;83.75;96537.17;1780096;80;21131;-80
2021/03/19 04:06:23;;;;;;;4.57;3.27;;;;;;;-0.14;83.34;96536.27;1762364;80;21144;-85
2021/03/19 04:08:52;;;;;;;3.50;2.57;;;;;;;-0.12;83.37;96538.31;1760082;80;21135;-84
2021/03/19 04:11:22;;;;;;;5.50;4.17;;;;;;;-0.13;83.18;96535.80;1777261;80;21128;-82
2021/03/19 04:13:55;;;;;;;4.30;3.20;;;;;;;-0.15;83.25;96537.17;1775377;80;21131;-88
2021/03/19 04:16:28;;;;;;;4.30;3.43;;;;;;;-0.14;83.21;96536.70;1780366;80;21140;-84
2021/03/19 04:18:58;;;;;;;5.27;3.60;;;;;;;-0.13;83.14;96529.32;1767745;80;21179;-80
2021/03/19 04:21:26;;;;;;;4.30;3.10;;;;;;;-0.09;83.23;96534.29;1781073;80;21139;-85
2021/03/19 04:23:54;;;;;;;3.80;2.80;;;;;;;-0.10;82.99;96533.91;1770167;80;21123;-86
2021/03/19 04:26:33;;;;;;;4.33;3.43;;;;;;;-0.16;82.90;96536.31;1770713;80;21274;-86
2021/03/19 04:29:03;;;;;;;4.97;3.87;;;;;;;-0.24;83.16;96529.83;1776671;80;21136;-86
2021/03/19 04:31:56;;;;;;;4.37;3.57;;;;;;;-0.21;83.28;96537.44;1739420;82;21085;-80
2021/03/19 04:34:24;;;;;;;4.93;3.77;;;;;;;-0.15;82.96;96533.29;1786437;80;21333;-86
2021/03/19 04:36:52;;;;;;;4.00;2.87;;;;;;;-0.12;83.33;96534.89;1795099;80;21132;-83
2021/03/19 04:39:27;;;;;;;5.80;4.70;;;;;;;-0.03;83.36;96539.17;1783993;80;21151;-79
2021/03/19 04:41:59;;;;;;;5.23;3.47;;;;;;;-0.06;83.44;96537.19;1784635;80;21129;-82
2021/03/19 04:44:31;;;;;;;4.00;3.10;;;;;;;0.01;83.43;96543.75;1754214;80;21128;-83
2021/03/19 04:46:58;;;;;;;3.77;2.27;;;;;;;0.01;83.50;96541.63;1772642;80;21163;-79
2021/03/19 04:49:29;;;;;;;2.73;1.90;;;;;;;-0.03;82.58;96540.47;1790720;80;21696;-81
2021/03/19 04:51:56;;;;;;;4.23;3.17;;;;;;;-0.10;83.08;96545.56;1768425;80;21176;-89
2021/03/19 04:54:24;;;;;;;4.90;3.62;;;;;;;-0.14;83.20;96547.92;1757875;82;21175;-86
2021/03/19 04:56:52;;;;;;;4.43;3.53;;;;;;;-0.15;83.49;96550.13;1785947;80;21097;-84
2021/03/19 04:59:20;;;;;;;4.47;3.40;;;;;;;-0.19;83.12;96549.88;1788628;80;21160;-87
2021/03/19 05:01:53;;;;;;;3.58;3.10;;;;;;;-0.19;83.31;96548.14;1788520;80;21149;-86
2021/03/19 05:04:29;;;;;;;4.33;3.67;;;;;;;-0.17;83.39;96554.06;1762821;80;21152;-80
2021/03/19 05:07:07;;;;;;;2.97;2.47;;;;;;;-0.24;83.55;96554.44;1774511;80;21127;-85
2021/03/19 05:10:00;;;;;;;2.75;2.15;;;;;;;-0.29;83.83;96557.23;1832498;77;25257;-84
2021/03/19 05:12:38;;;;;;;3.63;2.77;;;;;;;-0.35;83.68;96558.79;1776783;79;21276;-79
2021/03/19 05:15:10;;;;;;;2.80;2.20;;;;;;;-0.39;83.70;96561.97;1761554;81;21151;-84
2021/03/19 05:17:40;;;;;;;4.27;3.00;;;;;;;-0.36;83.66;96561.84;1750875;81;21140;-84
2021/03/19 05:20:14;;;;;;;3.12;2.37;;;;;;;-0.41;83.78;96564.25;1761917;81;21216;-82
2021/03/19 05:22:47;;;;;;;2.43;1.90;;;;;;;-0.40;83.77;96562.05;1751362;80;21126;-80
2021/03/19 05:25:23;;;;;;;5.03;2.83;;;;;;;-0.42;83.78;96567.31;1756232;81;21727;-81
2021/03/19 05:27:53;;;;;;;2.90;2.20;;;;;;;-0.48;83.86;96571.45;1714061;84;21154;-85
2021/03/19 05:30:23;;;;;;;3.33;2.73;;;;;;;-0.52;84.17;96568.63;1704391;84;21589;-89
2021/03/19 05:32:57;;;;;;;3.47;2.37;;;;;;;-0.51;84.14;96569.02;1678938;83;21218;-88
2021/03/19 05:35:36;;;;;;;2.93;2.03;;;;;;;-0.45;83.91;96573.91;1733370;82;21183;-82
2021/03/19 05:38:11;;;;;;;5.60;3.02;;;;;;;-0.48;83.75;96577.92;1745375;82;21176;-84
2021/03/19 05:40:53;;;;;;;2.23;1.57;;;;;;;-0.46;83.84;96578.70;1666565;85;21317;-82
2021/03/19 05:43:30;;;;;;;2.67;2.13;;;;;;;-0.42;83.81;96584.58;1685675;85;21189;-85
2021/03/19 05:46:06;;;;;;;3.75;2.67;;;;;;;-0.45;83.64;96588.16;1685128;85;21209;-82
2021/03/19 05:49:00;;;;;;;2.23;1.57;;;;;;;-0.46;83.83;96589.06;1685617;85;21166;-83
2021/03/19 05:51:50;;;;;;;4.20;2.80;;;;;;;-0.41;83.64;96589.69;1825204;77;25244;-84
2021/03/19 05:54:41;;;;;;;4.63;3.50;;;;;;;-0.53;83.76;96587.66;1757986;81;21117;-81
2021/03/19 05:57:26;;;;;;;3.63;2.20;;;;;;;-0.55;83.89;96591.59;1718847;81;21120;-84
2021/03/19 06:00:01;;;;;;;5.07;3.40;;;;;;;-0.57;84.11;96593.86;1740609;82;21297;-82
2021/03/19 06:02:38;;;;;;;4.53;2.93;;;;;;;-0.66;84.58;96597.24;1742976;82;21274;-81
2021/03/19 06:05:28;;;;;;;4.93;3.03;;;;;;;-0.67;84.67;96607.67;1731245;83;21148;-82
2021/03/19 06:08:09;;;;;;;2.97;2.27;;;;;;;-0.62;84.78;96604.89;1741019;82;21123;-81
2021/03/19 06:10:42;;;;;;;5.63;3.47;;;;;;;-0.53;84.61;96605.31;1745505;80;21620;-80
2021/03/19 06:13:26;;;;;;;8.07;4.17;;;;;;;-0.53;84.46;96600.13;1722713;82;21142;-84
2021/03/19 06:16:19;;;;;;;3.67;2.97;;;;;;;-0.44;84.79;96607.11;1762247;81;21138;-89
2021/03/19 06:19:35;;;;;;;4.80;3.40;;;;;;;-0.37;84.41;96605.95;1809643;79;24589;-84
2021/03/19 06:22:48;;;;;;;2.83;2.00;;;;;;;-0.43;84.61;96602.31;1710541;84;21162;-90
2021/03/19 06:25:45;;;;;;;9.83;3.67;;;;;;;-0.30;84.64;96615.13;1715073;84;21138;-90
2021/03/19 06:28:33;;;;;;;5.53;3.10;;;;;;;-0.27;84.22;96621.45;1803171;78;21249;-82
2021/03/19 06:31:31;;;;;;;3.40;3.00;;;;;;;-0.10;84.14;96623.76;1825335;77;24210;-93
2021/03/19 06:34:11;;;;;;;2.43;1.90;;;;;;;-0.10;83.98;96622.00;1764795;81;21301;-80
2021/03/19 06:36:59;;;;;;;5.47;2.40;;;;;;;-0.12;82.91;96628.99;1737969;82;21170;-85
2021/03/19 06:42:40;;;;;;;6.37;3.00;;;;;;;-0.23;83.62;96622.17;1706403;83;21793;-83
2021/03/19 06:45:20;;;;;;;5.90;3.23;;;;;;;-0.07;83.67;96624.46;1706289;84;21698;-83
2021/03/19 06:47:57;;;;;;;4.05;2.22;;;;;;;0.01;83.60;96624.09;1707124;84;21315;-90
2021/03/19 06:50:31;;;;;;;2.73;2.00;;;;;;;0.06;82.64;96629.06;1703150;83;21182;-91
2021/03/19 06:53:22;;;;;;;4.30;2.80;;;;;;;-0.01;82.61;96626.77;1690197;84;21141;-80
2021/03/19 06:55:56;;;;;;;2.87;2.20;;;;;;;-0.03;83.05;96623.39;1677906;85;21124;-85
2021/03/19 06:58:46;;;;;;;4.17;2.63;;;;;;;0.04;82.78;96633.50;1678228;85;21589;-83
2021/03/19 07:01:31;;;;;;;4.67;3.20;;;;;;;0.07;82.84;96636.79;1678233;85;21132;-81
2021/03/19 07:04:38;;;;;;;6.27;3.07;;;;;;;0.18;82.83;96638.88;1665949;85;21267;-86
2021/03/19 07:07:38;;;;;;;3.65;2.90;;;;;;;0.30;81.89;96639.63;1780846;79;24732;-81
2021/03/19 07:10:59;;;;;;;4.77;3.87;;;;;;;0.19;81.95;96643.16;1754618;81;21160;-85
2021/03/19 07:13:48;;;;;;;4.33;3.07;;;;;;;0.23;82.55;96642.09;1721047;83;21206;-91
2021/03/19 07:16:36;;;;;;;5.50;3.87;;;;;;;0.44;81.89;96648.05;1665394;85;21119;-80
2021/03/19 07:19:23;;;;;;;6.07;3.87;;;;;;;0.44;81.83;96643.30;1667880;86;21194;-91
2021/03/19 07:22:36;;;;;;;7.03;5.30;;;;;;;0.42;80.63;96651.61;1667811;85;21182;-80
2021/03/19 07:25:52;;;;;;;6.22;4.22;;;;;;;0.44;81.73;96651.09;1825416;77;25112;-88
2021/03/19 07:29:16;;;;;;;7.73;3.80;;;;;;;0.47;81.65;96656.14;1709592;84;21171;-83
2021/03/19 07:32:20;;;;;;;4.22;3.37;;;;;;;0.64;82.33;96655.80;1666043;83;21151;-77
2021/03/19 07:35:42;;;;;;;3.00;2.20;;;;;;;0.87;81.75;96658.14;1671663;85;21235;-80
2021/03/19 07:38:41;;;;;;;5.65;4.35;;;;;;;1.02;80.58;96663.48;1795708;77;24526;-79
2021/03/19 07:41:41;;;;;;;7.35;4.28;;;;;;;1.15;81.18;96658.53;1734434;80;21155;-77
2021/03/19 07:44:36;;;;;;;6.10;5.15;;;;;;;1.31;81.01;96669.00;1793625;80;21120;-81
2021/03/19 07:47:52;;;;;;;9.35;5.05;;;;;;;1.39;80.88;96668.16;1784694;80;21162;-76
2021/03/19 07:50:47;;;;;;;6.10;4.70;;;;;;;1.49;79.31;96668.52;1798726;80;21273;-77
2021/03/19 07:53:48;;;;;;;7.62;4.37;;;;;;;1.66;80.08;96668.97;1788873;80;21143;-78
2021/03/19 07:56:55;;;;;;;7.37;4.58;;;;;;;1.79;79.50;96660.08;1800416;80;21127;-80
2021/03/19 07:59:42;;;;;;;6.67;5.10;;;;;;;1.87;79.73;96668.31;1808923;78;21274;-77
2021/03/19 08:02:46;;;;;;;5.08;4.20;;;;;;;2.07;80.02;96665.98;1808288;78;21108;-82
2021/03/19 08:05:25;;;;;;;3.65;2.52;;;;;;;2.23;78.20;96667.29;1828032;78;21577;-79
2021/03/19 08:08:33;;;;;;;5.87;3.22;;;;;;;2.22;77.83;96673.44;1828122;78;21562;-83
2021/03/19 08:11:27;;;;;;;5.67;3.87;;;;;;;2.28;78.87;96674.84;1828736;78;21147;-83
2021/03/19 08:14:31;;;;;;;5.08;3.02;;;;;;;2.56;79.30;96670.74;1739056;82;21281;-90
2021/03/19 08:17:04;;;;;;;4.62;3.37;;;;;;;2.73;77.41;96671.98;1741492;82;21187;-79
2021/03/19 08:20:01;;;;;;;4.47;3.50;;;;;;;2.81;78.01;96661.13;1710751;82;21191;-91
2021/03/19 08:22:56;;;;;;;4.60;3.58;;;;;;;2.96;76.01;96669.39;1712610;84;21247;-75
2021/03/19 08:25:29;;;;;;;3.92;3.50;;;;;;;2.92;75.88;96669.66;1710763;84;21644;-81
2021/03/19 08:28:35;;;;;;;6.30;3.47;;;;;;;3.18;77.00;96672.06;1826531;77;24762;-89
2021/03/19 08:31:46;;;;;;;5.92;3.98;;;;;;;3.31;76.38;96670.06;1829548;78;21294;-77
2021/03/19 08:34:35;;;;;;;9.50;3.67;;;;;;;3.25;74.87;96675.98;1800307;78;21269;-79
2021/03/19 08:37:39;;;;;;;4.60;3.70;;;;;;;3.41;75.53;96669.42;1830888;78;21162;-81
2021/03/19 08:40:18;;;;;;;4.05;2.80;;;;;;;3.40;74.15;96670.83;1830439;78;21664;-78
2021/03/19 08:42:55;;;;;;;6.67;4.65;;;;;;;3.33;71.92;96672.95;1800389;78;21128;-79
2021/03/19 08:45:29;;;;;;;4.72;3.20;;;;;;;3.42;75.77;96672.41;1799422;78;21127;-86
2021/03/19 08:48:04;;;;;;;7.97;4.67;;;;;;;3.64;72.96;96675.07;1830580;78;21174;-79
2021/03/19 08:50:41;;;;;;;7.25;4.60;;;;;;;3.69;75.24;96674.80;1830848;78;21262;-79
2021/03/19 08:53:23;;;;;;;4.75;3.77;;;;;;;3.97;76.03;96673.97;1830556;78;21255;-87
2021/03/19 08:56:20;;;;;;;4.67;3.40;;;;;;;4.12;73.86;96676.59;1756685;79;21290;-75
2021/03/19 08:59:03;;;;;;;4.97;3.45;;;;;;;4.06;74.00;96673.89;1804072;79;21149;-82
2021/03/19 09:01:58;;;;;;;4.47;3.60;;;;;;;3.95;72.51;96678.44;1803381;79;21251;-90
2021/03/19 09:04:59;;;;;;;3.70;3.00;;;;;;;3.88;73.77;96680.59;1803165;79;21239;-87
2021/03/19 09:07:40;;;;;;;4.83;4.03;;;;;;;3.91;73.54;96683.48;1782966;79;21282;-77
2021/03/19 09:10:20;;;;;;;5.40;3.40;;;;;;;3.86;73.23;96681.59;1777909;79;21124;-79
2021/03/19 09:13:07;;;;;;;6.15;3.90;;;;;;;4.01;72.96;96679.84;1719902;83;21129;-89
2021/03/19 09:15:39;;;;;;;6.53;3.90;;;;;;;4.01;72.89;96677.23;1703886;83;21243;-81
2021/03/19 09:18:32;;;;;;;5.50;3.90;;;;;;;4.11;73.23;96684.05;1700638;84;21148;-80
2021/03/19 09:21:30;;;;;;;3.83;3.02;;;;;;;3.90;72.34;96683.10;1703558;84;21179;-76
2021/03/19 09:24:07;;;;;;;3.62;2.90;;;;;;;3.74;72.33;96684.03;1713619;84;21147;-83
2021/03/19 09:26:46;;;;;;;5.12;3.90;;;;;;;3.65;72.08;96688.48;1766736;81;21243;-79
2021/03/19 09:29:19;;;;;;;6.17;3.25;;;;;;;3.27;72.60;96694.15;1768153;81;21125;-78
2021/03/19 09:31:54;;;;;;;6.37;2.92;;;;;;;3.31;74.27;96694.33;1747725;81;21135;-76
2021/03/19 09:34:45;;;;;;;3.67;2.80;;;;;;;3.46;74.33;96686.09;1733818;80;21191;-74
2021/03/19 09:37:39;;;;;;;3.80;2.85;;;;;;;3.69;74.70;96692.56;1748367;81;21133;-77
2021/03/19 09:40:40;;;;;;;3.20;2.58;;;;;;;3.89;73.23;96694.02;1810572;77;24252;-80
2021/03/19 09:43:12;;;;;;;4.03;2.87;;;;;;;3.79;72.64;96694.63;1809271;78;21234;-77
2021/03/19 09:45:44;;;;;;;2.80;2.30;;;;;;;3.83;73.11;96697.44;1823991;78;21565;-76
2021/03/19 09:48:25;;;;;;;3.37;2.52;;;;;;;3.88;72.30;96695.38;1814820;78;21131;-85
2021/03/19 09:51:02;;;;;;;3.27;2.52;;;;;;;3.98;73.51;96700.91;1763211;80;21148;-77
2021/03/19 09:53:37;;;;;;;3.58;2.40;;;;;;;4.15;73.69;96699.42;1741395;81;21637;-76
2021/03/19 09:56:23;;;;;;;3.55;1.85;;;;;;;4.39;72.42;96700.14;1749836;81;21187;-75
2021/03/19 09:58:55;;;;;;;3.47;2.62;;;;;;;4.39;72.42;96700.14;1740006;81;21171;-78
2021/03/19 10:01:43;;;;;;;3.05;2.05;;;;;;;3.98;69.24;96703.52;1754388;81;21186;-79
2021/03/19 10:04:38;;;;;;;4.28;2.00;;;;;;;3.57;69.68;96705.86;1763239;81;21286;-76
2021/03/19 10:07:22;;;;;;;2.58;2.10;;;;;;;3.18;71.33;96707.70;1722256;81;21624;-83
2021/03/19 10:09:57;;;;;;;4.05;2.70;;;;;;;3.16;72.68;96702.55;1756379;81;21171;-76
2021/03/19 10:12:35;;;;;;;6.30;2.87;;;;;;;3.19;73.18;96708.08;1740261;82;21199;-75
2021/03/19 10:15:18;;;;;;;4.80;3.47;;;;;;;3.35;73.66;96707.57;1739217;82;21368;-76
2021/03/19 10:17:55;;;;;;;4.67;3.30;;;;;;;3.63;74.40;96711.63;1722313;82;21182;-78
2021/03/19 10:20:35;;;;;;;5.58;3.58;;;;;;;3.89;74.63;96717.48;1710819;83;21192;-76
2021/03/19 10:23:20;;;;;;;2.37;2.12;;;;;;;4.07;74.68;96722.53;1709699;82;21183;-81
2021/03/19 10:26:18;;;;;;;9.45;3.33;;;;;;;4.09;73.54;96721.94;1643658;87;21688;-82
2021/03/19 10:28:51;;;;;;;5.05;3.83;;;;;;;4.00;73.25;96716.83;1648894;85;21572;-79
2021/03/19 10:31:27;;;;;;;4.72;3.45;;;;;;;4.07;73.61;96719.92;1661340;86;21241;-84
2021/03/19 10:34:06;;;;;;;3.60;2.70;;;;;;;4.14;73.25;96716.00;1655708;85;21644;-74
2021/03/19 10:37:05;;;;;;;4.75;2.83;;;;;;;4.16;73.10;96722.42;1662836;86;21578;-75
2021/03/19 10:39:45;;;;;;;3.80;2.98;;;;;;;4.07;72.82;96726.44;1628110;88;21305;-79
2021/03/19 10:42:47;;;;;;;2.70;1.55;;;;;;;4.16;73.56;96721.97;1621578;88;21233;-76
2021/03/19 10:45:47;;;;;;;4.60;2.55;;;;;;;4.12;72.08;96731.37;1635531;88;21326;-83
2021/03/19 10:49:00;;;;;;;4.20;2.25;;;;;;;3.87;71.84;96727.60;1836381;77;24531;-78
2021/03/19 10:51:45;;;;;;;3.62;2.37;;;;;;;3.70;71.78;96732.05;1784427;79;21230;-75
2021/03/19 10:54:28;;;;;;;7.28;2.62;;;;;;;3.70;72.92;96737.27;1786439;80;21186;-76
2021/03/19 10:57:00;;;;;;;6.62;2.65;;;;;;;3.70;73.20;96735.96;1796076;78;21178;-75
2021/03/19 10:59:33;;;;;;;4.03;2.70;;;;;;;3.88;74.37;96737.11;1785317;78;21158;-75
2021/03/19 11:02:19;;;;;;;4.35;3.05;;;;;;;4.07;74.15;96732.95;1768678;78;21690;-74
2021/03/19 11:04:58;;;;;;;5.83;2.85;;;;;;;4.31;73.98;96737.61;1781259;78;21600;-77
2021/03/19 11:07:38;;;;;;;4.97;3.25;;;;;;;4.57;74.49;96733.41;1799704;78;21176;-75
2021/03/19 11:10:26;;;;;;;3.62;3.02;;;;;;;4.82;74.01;96738.41;1793243;79;21159;-77
2021/03/19 11:13:17;;;;;;;8.15;3.12;;;;;;;5.05;73.93;96732.20;1805827;79;21154;-77
2021/03/19 11:15:49;;;;;;;4.15;3.37;;;;;;;5.14;72.98;96734.23;1789080;79;21632;-86
2021/03/19 11:18:25;;;;;;;4.65;3.47;;;;;;;5.33;73.08;96732.56;1786411;79;21199;-75
2021/03/19 11:21:00;;;;;;;6.62;3.30;;;;;;;5.54;72.87;96735.55;1792807;78;21162;-77
2021/03/19 11:23:38;;;;;;;3.08;2.77;;;;;;;5.68;71.89;96735.94;1796823;78;21195;-83
2021/03/19 11:26:26;;;;;;;3.72;2.83;;;;;;;5.78;73.45;96738.80;1797248;78;21075;-79
2021/03/19 11:29:22;;;;;;;4.83;3.98;;;;;;;5.97;73.05;96729.23;1792505;78;21122;-81
2021/03/19 11:32:13;;;;;;;5.97;4.37;;;;;;;6.02;72.08;96731.12;1798636;78;21147;-79
2021/03/19 11:34:52;;;;;;;6.95;4.53;;;;;;;6.02;71.85;96735.49;1799168;78;21143;-76
2021/03/19 11:37:26;;;;;;;5.22;4.72;;;;;;;5.82;71.13;96740.25;1805889;78;21127;-85
2021/03/19 11:40:10;;;;;;;5.87;5.05;;;;;;;5.71;71.68;96741.43;1799514;78;21143;-84
2021/03/19 11:42:49;;;;;;;7.42;5.67;;;;;;;5.59;71.51;96744.39;1812462;78;21212;-82
2021/03/19 11:45:24;;;;;;;7.12;5.47;;;;;;;5.39;71.02;96737.38;1814640;78;21521;-78
2021/03/19 11:48:33;;;;;;;6.20;5.03;;;;;;;5.03;70.22;96744.04;1808971;79;21123;-81
2021/03/19 11:51:15;;;;;;;7.92;5.55;;;;;;;4.60;70.33;96742.34;1777983;79;21183;-82
2021/03/19 11:53:44;;;;;;;5.97;5.15;;;;;;;4.19;70.58;96749.64;1814665;78;21175;-80
2021/03/19 11:56:18;;;;;;;7.28;5.97;;;;;;;4.09;69.89;96746.72;1795640;78;21143;-77
2021/03/19 11:58:46;;;;;;;6.60;5.92;;;;;;;3.99;70.91;96744.31;1800344;78;21142;-80
2021/03/19 12:01:14;;;;;;;7.30;5.45;;;;;;;3.98;71.87;96747.85;1799749;78;21163;-87
2021/03/19 12:03:48;;;;;;;10.32;7.03;;;;;;;4.06;73.48;96748.23;1786889;79;21150;-83
2021/03/19 12:06:21;;;;;;;8.48;6.75;;;;;;;4.18;73.19;96757.09;1790677;79;21614;-79
2021/03/19 12:08:50;;;;;;;10.58;8.15;;;;;;;4.37;74.01;96752.44;1793035;79;21608;-90
2021/03/19 12:11:31;;;;;;;8.85;5.50;;;;;;;4.59;74.13;96752.44;1774589;79;21146;-80
2021/03/19 12:13:59;;;;;;;8.08;7.15;;;;;;;4.81;74.40;96758.47;1789237;79;21698;-79
2021/03/19 12:16:30;;;;;;;8.15;5.35;;;;;;;4.90;74.36;96755.73;1792716;79;21134;-80
2021/03/19 12:19:00;;;;;;;7.22;5.50;;;;;;;5.01;74.89;96756.38;1788027;79;21123;-82
2021/03/19 12:21:28;;;;;;;6.12;5.05;;;;;;;5.15;73.92;96761.55;1795983;78;22036;-87
2021/03/19 12:24:04;;;;;;;6.70;6.00;;;;;;;5.23;74.45;96761.53;1733634;81;21158;-78
2021/03/19 12:26:32;;;;;;;8.88;5.58;;;;;;;5.29;74.75;96761.98;1713040;83;21197;-81
2021/03/19 12:29:00;;;;;;;7.62;5.72;;;;;;;5.38;74.53;96764.45;1713793;83;21568;-82
2021/03/19 12:31:28;;;;;;;7.92;6.00;;;;;;;5.43;73.07;96767.63;1749115;81;21202;-84
2021/03/19 12:33:57;;;;;;;7.22;6.17;;;;;;;5.48;73.23;96769.94;1713121;83;21181;-81
2021/03/19 12:36:25;;;;;;;7.78;5.33;;;;;;;5.54;75.83;96772.14;1707912;82;21160;-85
2021/03/19 12:38:55;;;;;;;7.78;6.33;;;;;;;5.59;75.15;96771.39;1753811;82;21193;-89
2021/03/19 12:41:23;;;;;;;7.17;5.53;;;;;;;5.59;74.60;96783.61;1756353;81;21165;-91
2021/03/19 12:43:51;;;;;;;6.58;5.58;;;;;;;5.67;75.70;96779.20;1733873;81;21157;-79
2021/03/19 12:46:23;;;;;;;8.40;6.85;;;;;;;5.60;73.86;96785.29;1735418;81;21201;-85
2021/03/19 12:48:52;;;;;;;10.08;5.97;;;;;;;5.57;74.70;96781.11;1746236;80;21177;-88